sensor_id;sensor_type;location;lat;lon;timestamp;P1;durP1;ratioP1;P2;durP2;ratioP2
52438;SDS011;38359;53.150;6.504;2022-10-16T00:08:20;12.15;;;2.20;;
52438;SDS011;38359;53.150;6.504;2022-10-16T00:18:46;13.65;;;2.10;;
52438;SDS011;38359;53.150;6.504;2022-10-16T00:29:12;14.38;;;2.55;;
52438;SDS011;38359;53.150;6.504;2022-10-16T00:39:38;12.88;;;1.92;;
52438;SDS011;38359;53.150;6.504;2022-10-16T00:50:08;12.15;;;2.08;;
52438;SDS011;38359;53.150;6.504;2022-10-16T01:00:38;10.38;;;2.08;;
52438;SDS011;38359;53.150;6.504;2022-10-16T01:11:13;7.78;;;1.75;;
52438;SDS011;38359;53.150;6.504;2022-10-16T01:21:48;6.95;;;1.85;;
52438;SDS011;38359;53.150;6.504;2022-10-16T01:43:06;8.20;;;1.77;;
52438;SDS011;38359;53.150;6.504;2022-10-16T01:53:43;12.40;;;2.53;;
52438;SDS011;38359;53.150;6.504;2022-10-16T02:04:15;10.48;;;1.50;;
52438;SDS011;38359;53.150;6.504;2022-10-16T02:14:53;12.35;;;1.85;;
52438;SDS011;38359;53.150;6.504;2022-10-16T02:25:22;15.70;;;2.13;;
52438;SDS011;38359;53.150;6.504;2022-10-16T02:35:53;15.38;;;1.95;;
52438;SDS011;38359;53.150;6.504;2022-10-16T02:46:20;7.57;;;1.90;;
52438;SDS011;38359;53.150;6.504;2022-10-16T02:56:46;7.95;;;1.65;;
52438;SDS011;38359;53.150;6.504;2022-10-16T03:07:12;8.10;;;1.80;;
52438;SDS011;38359;53.150;6.504;2022-10-16T03:17:38;7.93;;;1.40;;
52438;SDS011;38359;53.150;6.504;2022-10-16T03:28:03;6.20;;;1.85;;
52438;SDS011;38359;53.150;6.504;2022-10-16T03:38:29;6.75;;;1.40;;
52438;SDS011;38359;53.150;6.504;2022-10-16T03:48:55;7.50;;;1.73;;
52438;SDS011;38359;53.150;6.504;2022-10-16T03:59:21;6.35;;;1.60;;
52438;SDS011;38359;53.150;6.504;2022-10-16T04:09:47;8.60;;;1.88;;
52438;SDS011;38359;53.150;6.504;2022-10-16T04:20:12;9.13;;;1.90;;
52438;SDS011;38359;53.150;6.504;2022-10-16T04:30:38;8.68;;;1.77;;
52438;SDS011;38359;53.150;6.504;2022-10-16T04:41:05;7.47;;;2.00;;
52438;SDS011;38359;53.150;6.504;2022-10-16T04:51:32;8.23;;;2.00;;
52438;SDS011;38359;53.150;6.504;2022-10-16T05:01:57;13.45;;;3.05;;
52438;SDS011;38359;53.150;6.504;2022-10-16T05:12:23;6.60;;;2.28;;
52438;SDS011;38359;53.150;6.504;2022-10-16T05:22:49;9.82;;;2.47;;
52438;SDS011;38359;53.150;6.504;2022-10-16T05:33:15;6.25;;;2.58;;
52438;SDS011;38359;53.150;6.504;2022-10-16T05:43:41;10.90;;;2.35;;
52438;SDS011;38359;53.150;6.504;2022-10-16T05:54:07;7.47;;;2.35;;
52438;SDS011;38359;53.150;6.504;2022-10-16T06:04:33;14.70;;;3.42;;
52438;SDS011;38359;53.150;6.504;2022-10-16T06:14:59;8.07;;;3.00;;
52438;SDS011;38359;53.150;6.504;2022-10-16T06:25:25;12.38;;;2.95;;
52438;SDS011;38359;53.150;6.504;2022-10-16T06:35:51;13.27;;;2.78;;
52438;SDS011;38359;53.150;6.504;2022-10-16T06:46:18;8.52;;;2.80;;
52438;SDS011;38359;53.150;6.504;2022-10-16T06:56:47;11.20;;;3.05;;
52438;SDS011;38359;53.150;6.504;2022-10-16T07:07:13;10.98;;;2.65;;
52438;SDS011;38359;53.150;6.504;2022-10-16T07:17:39;12.23;;;4.30;;
52438;SDS011;38359;53.150;6.504;2022-10-16T07:28:04;11.43;;;2.95;;
52438;SDS011;38359;53.150;6.504;2022-10-16T07:38:30;12.05;;;3.40;;
52438;SDS011;38359;53.150;6.504;2022-10-16T07:48:56;7.32;;;2.95;;
52438;SDS011;38359;53.150;6.504;2022-10-16T07:59:22;5.40;;;2.88;;
52438;SDS011;38359;53.150;6.504;2022-10-16T08:09:50;10.63;;;2.97;;
52438;SDS011;38359;53.150;6.504;2022-10-16T08:20:17;16.45;;;2.88;;
52438;SDS011;38359;53.150;6.504;2022-10-16T08:30:43;5.25;;;1.73;;
52438;SDS011;38359;53.150;6.504;2022-10-16T08:41:14;5.97;;;2.50;;
52438;SDS011;38359;53.150;6.504;2022-10-16T08:51:53;12.80;;;2.25;;
52438;SDS011;38359;53.150;6.504;2022-10-16T09:02:40;4.38;;;1.60;;
52438;SDS011;38359;53.150;6.504;2022-10-16T09:13:29;12.95;;;2.08;;
52438;SDS011;38359;53.150;6.504;2022-10-16T09:34:43;12.20;;;2.28;;
52438;SDS011;38359;53.150;6.504;2022-10-16T09:45:21;12.85;;;2.63;;
52438;SDS011;38359;53.150;6.504;2022-10-16T10:06:25;19.08;;;2.83;;
52438;SDS011;38359;53.150;6.504;2022-10-16T10:39:15;22.02;;;3.53;;
52438;SDS011;38359;53.150;6.504;2022-10-16T10:49:28;18.60;;;3.03;;
52438;SDS011;38359;53.150;6.504;2022-10-16T11:21:23;23.15;;;3.17;;
52438;SDS011;38359;53.150;6.504;2022-10-16T11:31:50;21.58;;;2.63;;
52438;SDS011;38359;53.150;6.504;2022-10-16T11:42:26;20.88;;;2.97;;
52438;SDS011;38359;53.150;6.504;2022-10-16T11:53:13;16.30;;;2.57;;
52438;SDS011;38359;53.150;6.504;2022-10-16T12:04:32;19.13;;;2.72;;
52438;SDS011;38359;53.150;6.504;2022-10-16T12:25:55;23.02;;;2.97;;
52438;SDS011;38359;53.150;6.504;2022-10-16T12:36:29;17.17;;;2.60;;
52438;SDS011;38359;53.150;6.504;2022-10-16T12:46:57;18.33;;;2.53;;
52438;SDS011;38359;53.150;6.504;2022-10-16T12:57:32;17.45;;;2.38;;
52438;SDS011;38359;53.150;6.504;2022-10-16T13:08:41;19.60;;;2.40;;
52438;SDS011;38359;53.150;6.504;2022-10-16T13:19:34;21.98;;;3.70;;
52438;SDS011;38359;53.150;6.504;2022-10-16T13:30:30;21.75;;;3.70;;
52438;SDS011;38359;53.150;6.504;2022-10-16T13:41:14;15.60;;;2.87;;
52438;SDS011;38359;53.150;6.504;2022-10-16T13:51:56;21.08;;;3.22;;
52438;SDS011;38359;53.150;6.504;2022-10-16T14:02:34;20.30;;;3.45;;
52438;SDS011;38359;53.150;6.504;2022-10-16T14:13:04;18.83;;;3.03;;
52438;SDS011;38359;53.150;6.504;2022-10-16T14:23:34;14.95;;;3.55;;
52438;SDS011;38359;53.150;6.504;2022-10-16T14:34:02;19.05;;;3.17;;
52438;SDS011;38359;53.150;6.504;2022-10-16T14:44:31;14.77;;;3.00;;
52438;SDS011;38359;53.150;6.504;2022-10-16T14:54:58;20.55;;;3.22;;
52438;SDS011;38359;53.150;6.504;2022-10-16T15:05:25;18.90;;;3.40;;
52438;SDS011;38359;53.150;6.504;2022-10-16T15:15:53;19.83;;;2.95;;
52438;SDS011;38359;53.150;6.504;2022-10-16T15:26:19;26.67;;;3.95;;
52438;SDS011;38359;53.150;6.504;2022-10-16T15:36:45;18.30;;;2.90;;
52438;SDS011;38359;53.150;6.504;2022-10-16T15:47:11;23.48;;;3.10;;
52438;SDS011;38359;53.150;6.504;2022-10-16T15:57:37;26.58;;;3.45;;
52438;SDS011;38359;53.150;6.504;2022-10-16T16:08:05;15.77;;;3.08;;
52438;SDS011;38359;53.150;6.504;2022-10-16T16:18:31;27.63;;;4.25;;
52438;SDS011;38359;53.150;6.504;2022-10-16T16:28:57;27.25;;;4.53;;
52438;SDS011;38359;53.150;6.504;2022-10-16T16:39:23;24.15;;;4.70;;
52438;SDS011;38359;53.150;6.504;2022-10-16T16:49:49;27.42;;;6.30;;
52438;SDS011;38359;53.150;6.504;2022-10-16T17:00:16;22.25;;;5.45;;
52438;SDS011;38359;53.150;6.504;2022-10-16T17:10:42;25.98;;;3.78;;
52438;SDS011;38359;53.150;6.504;2022-10-16T17:21:09;28.83;;;5.20;;
52438;SDS011;38359;53.150;6.504;2022-10-16T17:31:35;24.92;;;3.83;;
52438;SDS011;38359;53.150;6.504;2022-10-16T17:42:01;23.02;;;3.90;;
52438;SDS011;38359;53.150;6.504;2022-10-16T17:52:28;23.92;;;3.65;;
52438;SDS011;38359;53.150;6.504;2022-10-16T18:02:54;24.58;;;3.50;;
52438;SDS011;38359;53.150;6.504;2022-10-16T18:13:20;19.73;;;2.97;;
52438;SDS011;38359;53.150;6.504;2022-10-16T18:23:46;25.13;;;3.30;;
52438;SDS011;38359;53.150;6.504;2022-10-16T18:34:12;14.77;;;3.03;;
52438;SDS011;38359;53.150;6.504;2022-10-16T18:44:38;18.83;;;3.88;;
52438;SDS011;38359;53.150;6.504;2022-10-16T18:55:04;25.90;;;5.70;;
52438;SDS011;38359;53.150;6.504;2022-10-16T19:05:32;22.33;;;4.93;;
52438;SDS011;38359;53.150;6.504;2022-10-16T19:15:59;27.50;;;4.70;;
52438;SDS011;38359;53.150;6.504;2022-10-16T19:26:26;30.02;;;4.32;;
52438;SDS011;38359;53.150;6.504;2022-10-16T19:36:53;14.70;;;3.38;;
52438;SDS011;38359;53.150;6.504;2022-10-16T19:47:20;17.73;;;3.85;;
52438;SDS011;38359;53.150;6.504;2022-10-16T19:57:45;23.77;;;5.43;;
52438;SDS011;38359;53.150;6.504;2022-10-16T20:08:11;26.13;;;6.45;;
52438;SDS011;38359;53.150;6.504;2022-10-16T20:18:37;26.80;;;6.70;;
52438;SDS011;38359;53.150;6.504;2022-10-16T20:29:04;31.95;;;9.55;;
52438;SDS011;38359;53.150;6.504;2022-10-16T20:39:30;30.08;;;8.88;;
52438;SDS011;38359;53.150;6.504;2022-10-16T20:49:56;25.95;;;7.57;;
52438;SDS011;38359;53.150;6.504;2022-10-16T21:00:22;28.88;;;7.45;;
52438;SDS011;38359;53.150;6.504;2022-10-16T21:10:48;24.20;;;6.78;;
52438;SDS011;38359;53.150;6.504;2022-10-16T21:21:27;20.73;;;6.13;;
52438;SDS011;38359;53.150;6.504;2022-10-16T21:31:55;19.48;;;5.93;;
52438;SDS011;38359;53.150;6.504;2022-10-16T21:42:21;18.30;;;5.68;;
52438;SDS011;38359;53.150;6.504;2022-10-16T21:52:47;20.25;;;4.72;;
52438;SDS011;38359;53.150;6.504;2022-10-16T22:03:13;19.92;;;4.70;;
52438;SDS011;38359;53.150;6.504;2022-10-16T22:13:38;17.70;;;3.95;;
52438;SDS011;38359;53.150;6.504;2022-10-16T22:24:06;18.38;;;4.20;;
52438;SDS011;38359;53.150;6.504;2022-10-16T22:34:33;22.13;;;4.80;;
52438;SDS011;38359;53.150;6.504;2022-10-16T22:44:58;19.83;;;5.63;;
52438;SDS011;38359;53.150;6.504;2022-10-16T22:55:24;20.02;;;5.90;;
52438;SDS011;38359;53.150;6.504;2022-10-16T23:05:50;14.75;;;5.05;;
52438;SDS011;38359;53.150;6.504;2022-10-16T23:16:17;20.98;;;4.97;;
52438;SDS011;38359;53.150;6.504;2022-10-16T23:26:44;23.83;;;5.70;;
52438;SDS011;38359;53.150;6.504;2022-10-16T23:37:10;18.77;;;5.35;;
52438;SDS011;38359;53.150;6.504;2022-10-16T23:47:36;17.75;;;4.00;;
52438;SDS011;38359;53.150;6.504;2022-10-16T23:58:01;21.92;;;5.68;;
